Sinai, South Dakota
Current Conditions -  °F | °C
As of 1:15 PM on Tuesday 21 Oct 2014 (Local Time) from KMDS Reporting Station
Clear Clear  
Wind Chill: 70°   Ceiling: Unl
Heat Index: 70°   Visibility: 10mi
Dew Point: 41°   Wind: 18mph
Humidity: 35%   Direction: 170°S
Pressure: 30"   Gusts: 23mph
Location:  44.24°N, 97.04°W
Report Text: KMDS 211815Z AUTO 17016G20KT 10SM CLR 21/05 A3000 RMK AO2
Loading
Personal Weather Stations






























Interactive Weather Map New forecast layout! Learn more

10-Day Weather Forecast

Advertisements
Track Severe Weather on mobile